Observations for TREVISO CIV IT-AFB, Italy (LIPH)

LIPH 260450Z AUTO 36003KT 9999 NCD 21/18 Q1017  
LIPH 260420Z AUTO VRB01KT 9999 SCT160/// 21/18 Q1017
LIPH 260420Z AUTO VRB01KT 9999 SCT160 21/18 Q1017
LIPH 260350Z AUTO 33003KT 9999 NCD 23/18 Q1017  
LIPH 260320Z AUTO 02002KT 9999 NCD 22/18 Q1017  
LIPH 260250Z AUTO 36004KT 9999 NCD 23/18 Q1017  
LIPH 260220Z AUTO 36004KT 9999 NCD 23/18 Q1017  
LIPH 260150Z AUTO 01003KT 9999 FEW140/// 23/18 Q1017
LIPH 260150Z AUTO 01003KT 9999 FEW140 23/18 Q1017
LIPH 260120Z AUTO 36004KT 320V020 9999 NCD 23/18 Q1017  
LIPH 260050Z AUTO 36003KT 9999 NCD 23/18 Q1017  
LIPH 260020Z AUTO 36004KT 9999 NCD 24/18 Q1017  
LIPH 252350Z AUTO 02004KT 9999 NCD 24/18 Q1017  
LIPH 252320Z AUTO 02005KT 9999 NCD 24/18 Q1017  
LIPH 252250Z AUTO 02004KT 350V050 9999 FEW190/// 24/19 Q1018
LIPH 252250Z AUTO 02004KT 350V050 9999 FEW190 24/19 Q1018
LIPH 252220Z AUTO 04004KT 360V070 9999 BKN190/// BKN220/// 24/19 Q1018  
LIPH 252220Z AUTO 04004KT 360V070 9999 BKN190 BKN220 24/19 Q1018
LIPH 252150Z AUTO 03005KT 360V060 9999 FEW190/// BKN220/// 25/19 Q1018  
LIPH 252150Z AUTO 03005KT 360V060 9999 FEW190 BKN220 25/19 Q1018
LIPH 252120Z AUTO 36004KT 330V030 9999 FEW200/// BKN220/// 24/19 Q1017  
LIPH 252120Z AUTO 36004KT 330V030 9999 FEW200 BKN220 24/19 Q1017
LIPH 252050Z 36003KT CAVOK 25/19 Q1017  
LIPH 252020Z 35003KT CAVOK 25/20 Q1017  
LIPH 251950Z 33003KT CAVOK 26/20 Q1017  
LIPH 251920Z 32003KT CAVOK 27/20 Q1017  
LIPH 251850Z 32003KT CAVOK 28/19 Q1017  
LIPH 251820Z 31003KT CAVOK 28/19 Q1017  
LIPH 251750Z VRB01KT CAVOK 27/20 Q1016  
LIPH 251720Z 12002KT CAVOK 29/19 Q1016  
LIPH 251650Z 05003KT CAVOK 30/19 Q1016  
LIPH 251620Z VRB02KT CAVOK 30/18 Q1016  
LIPH 251550Z 06005KT 030V110 CAVOK 30/18 Q1016  
LIPH 251520Z VRB02KT CAVOK 31/19 Q1016  
LIPH 251450Z 02005KT 330V060 CAVOK 30/18 Q1016  
LIPH 251420Z 04004KT 320V090 CAVOK 30/19 Q1016  
LIPH 251350Z 36004KT 290V060 CAVOK 30/19 Q1016  
LIPH 251320Z 01004KT 310V060 CAVOK 30/19 Q1017  
LIPH 251250Z 36004KT 280V070 CAVOK 29/18 Q1017  
LIPH 251220Z 34004KT 290V030 CAVOK 29/19 Q1017  
LIPH 251150Z 04004KT 340V070 CAVOK 29/19 Q1017  
LIPH 251120Z 05003KT 330V110 CAVOK 28/18 Q1017  
LIPH 251050Z VRB03KT CAVOK 28/19 Q1018  
LIPH 251020Z 34004KT 310V030 CAVOK 27/18 Q1018  
LIPH 250950Z 33003KT 270V040 CAVOK 27/19 Q1018  
LIPH 250920Z 32004KT 270V350 CAVOK 27/18 Q1018  
LIPH 250850Z 34004KT 300V360 CAVOK 26/18 Q1018  
LIPH 250820Z 03003KT 320V130 CAVOK 26/18 Q1018  
LIPH 250750Z 01003KT 320V070 CAVOK 25/18 Q1018  
LIPH 250720Z 36003KT 320V050 CAVOK 24/19 Q1018  
LIPH 250650Z VRB02KT CAVOK 23/19 Q1018  
LIPH 250620Z VRB02KT CAVOK 22/19 Q1017  
LIPH 250550Z 01003KT CAVOK 22/19 Q1017  
LIPH 250520Z 05003KT CAVOK 20/19 Q1017  
LIPH 250450Z AUTO VRB01KT 9999 OVC130/// 20/19 Q1017
LIPH 250450Z AUTO VRB01KT 9999 OVC130 20/19 Q1017
LIPH 250420Z AUTO VRB02KT 9999 OVC140/// 20/19 Q1017
LIPH 250420Z AUTO VRB02KT 9999 OVC140 20/19 Q1017